createdAt,value
2022-12-15T00:01:57.164Z,96978.00
2022-12-15T00:05:18.008Z,96970.69
2022-12-15T00:08:39.478Z,96974.47
2022-12-15T00:12:01.452Z,96978.00
2022-12-15T00:15:22.795Z,96991.97
2022-12-15T00:18:43.612Z,96992.44
2022-12-15T00:22:04.344Z,97002.50
2022-12-15T00:25:25.732Z,96998.38
2022-12-15T00:28:47.371Z,97003.53
2022-12-15T00:32:07.736Z,96999.84
2022-12-15T00:35:28.415Z,97005.13
2022-12-15T00:38:44.156Z,97006.84
2022-12-15T00:41:47.096Z,97001.56
2022-12-15T00:44:51.627Z,97010.03
2022-12-15T00:47:53.682Z,97013.69
2022-12-15T00:50:56.583Z,97028.91
2022-12-15T00:54:18.240Z,97026.19
2022-12-15T00:57:39.104Z,97039.94
2022-12-15T01:01:01.239Z,97031.47
2022-12-15T01:04:21.973Z,97030.56
2022-12-15T01:07:42.416Z,97037.22
2022-12-15T01:11:02.770Z,97034.00
2022-12-15T01:14:23.506Z,97032.53
2022-12-15T01:17:45.936Z,97039.94
2022-12-15T01:20:56.675Z,97042.47
2022-12-15T01:23:59.508Z,97050.94
2022-12-15T01:27:02.484Z,97054.91
2022-12-15T01:30:08.180Z,97052.84
2022-12-15T01:33:12.586Z,97052.63
2022-12-15T01:36:15.665Z,97050.47
2022-12-15T01:39:18.475Z,97056.53
2022-12-15T01:42:20.318Z,97046.56
2022-12-15T01:45:50.766Z,97047.59
2022-12-15T01:49:00.954Z,97062.94
2022-12-15T01:52:08.000Z,97067.16
2022-12-15T01:55:11.977Z,97063.72
2022-12-15T01:58:18.095Z,97058.94
2022-12-15T02:01:21.348Z,97063.72
2022-12-15T02:04:26.431Z,97066.34
2022-12-15T02:07:29.381Z,97069.78
2022-12-15T02:10:41.926Z,97067.41
2022-12-15T02:13:56.676Z,97056.19
2022-12-15T02:17:15.647Z,97066.16
2022-12-15T02:20:44.604Z,97073.56
2022-12-15T02:24:20.748Z,97084.34
2022-12-15T02:27:54.798Z,97085.03
2022-12-15T02:31:16.042Z,97090.53
2022-12-15T02:34:27.675Z,97072.56
2022-12-15T02:37:34.174Z,97077.47
2022-12-15T02:40:37.208Z,97077.47
2022-12-15T02:43:40.868Z,97078.75
2022-12-15T02:47:11.943Z,97087.81
2022-12-15T02:50:30.964Z,97097.28
2022-12-15T02:54:06.060Z,97098.53
2022-12-15T02:57:21.706Z,97087.22
2022-12-15T03:00:24.714Z,97095.34
2022-12-15T03:03:32.756Z,97087.22
2022-12-15T03:06:36.608Z,97089.38
2022-12-15T03:09:39.660Z,97088.47
2022-12-15T03:12:45.246Z,97093.63
2022-12-15T03:15:48.299Z,97094.75
2022-12-15T03:18:53.182Z,97101.97
2022-12-15T03:21:56.155Z,97100.97
2022-12-15T03:24:59.118Z,97103.59
2022-12-15T03:28:02.118Z,97108.41
2022-12-15T03:31:05.302Z,97108.06
2022-12-15T03:34:09.563Z,97111.03
2022-12-15T03:37:12.696Z,97108.63
2022-12-15T03:40:16.670Z,97118.13
2022-12-15T03:43:20.010Z,97111.59
2022-12-15T03:46:23.139Z,97119.50
2022-12-15T03:49:28.039Z,97118.00
2022-12-15T03:52:31.590Z,97113.56
2022-12-15T03:55:35.255Z,97125.69
2022-12-15T03:58:38.338Z,97146.97
2022-12-15T04:01:47.754Z,97156.59
2022-12-15T04:04:52.134Z,97158.19
2022-12-15T04:07:55.413Z,97141.94
2022-12-15T04:10:58.284Z,97135.19
2022-12-15T04:14:01.088Z,97134.97
2022-12-15T04:17:04.102Z,97155.22
2022-12-15T04:20:12.656Z,97166.22
2022-12-15T04:23:15.435Z,97169.63
2022-12-15T04:26:36.034Z,97162.44
2022-12-15T04:29:57.117Z,97161.97
2022-12-15T04:33:25.114Z,97161.16
2022-12-15T04:36:50.529Z,97154.19
2022-12-15T04:40:13.256Z,97137.81
2022-12-15T04:43:33.676Z,97147.88
2022-12-15T04:46:54.233Z,97147.63
2022-12-15T04:50:14.568Z,97154.84
2022-12-15T04:53:38.115Z,97162.66
2022-12-15T04:56:58.809Z,97162.19
2022-12-15T05:00:19.701Z,97161.03
2022-12-15T05:03:39.885Z,97156.25
2022-12-15T05:07:03.425Z,97159.69
2022-12-15T05:10:26.347Z,97156.94
2022-12-15T05:13:46.845Z,97165.75
2022-12-15T05:17:07.150Z,97158.44
2022-12-15T05:20:28.603Z,97161.75
2022-12-15T05:23:48.864Z,97163.94
2022-12-15T05:27:10.459Z,97173.31
2022-12-15T05:30:31.303Z,97175.38
2022-12-15T05:33:34.633Z,97178.81
2022-12-15T05:36:37.562Z,97186.00
2022-12-15T05:39:40.468Z,97171.50
2022-12-15T05:42:44.846Z,97160.81
2022-12-15T05:45:53.613Z,97167.81
2022-12-15T05:48:56.429Z,97163.78
2022-12-15T05:51:59.186Z,97168.84
2022-12-15T05:55:02.126Z,97182.13
2022-12-15T05:58:06.424Z,97182.94
2022-12-15T06:01:12.849Z,97186.34
2022-12-15T06:04:16.466Z,97182.47
2022-12-15T06:07:19.397Z,97180.88
2022-12-15T06:10:22.265Z,97168.50
2022-12-15T06:13:27.687Z,97180.16
2022-12-15T06:16:30.743Z,97199.53
2022-12-15T06:19:33.882Z,97188.97
2022-12-15T06:22:36.855Z,97202.84
2022-12-15T06:25:39.791Z,97182.47
2022-12-15T06:28:44.517Z,97192.91
2022-12-15T06:31:47.825Z,97212.47
2022-12-15T06:34:51.024Z,97218.31
2022-12-15T06:37:54.322Z,97193.00
2022-12-15T06:40:57.598Z,97203.44
2022-12-15T06:44:02.528Z,97186.47
2022-12-15T06:47:05.590Z,97186.25
2022-12-15T06:50:09.066Z,97186.16
2022-12-15T06:53:11.852Z,97199.06
2022-12-15T06:56:18.416Z,97200.91
2022-12-15T06:59:22.702Z,97201.81
2022-12-15T07:02:29.166Z,97192.91
2022-12-15T07:05:32.197Z,97184.53
2022-12-15T07:08:41.112Z,97189.56
2022-12-15T07:11:45.319Z,97191.84
2022-12-15T07:14:53.377Z,97191.63
2022-12-15T07:17:56.645Z,97199.88
2022-12-15T07:21:04.419Z,97193.00
2022-12-15T07:24:08.451Z,97193.56
2022-12-15T07:27:11.446Z,97215.31
2022-12-15T07:30:17.536Z,97202.72
2022-12-15T07:33:20.213Z,97201.47
2022-12-15T07:36:23.120Z,97216.28
2022-12-15T07:39:27.328Z,97217.03
2022-12-15T07:42:30.356Z,97223.69
2022-12-15T07:45:34.756Z,97220.38
2022-12-15T07:48:37.667Z,97218.56
2022-12-15T07:51:41.197Z,97212.72
2022-12-15T07:54:43.999Z,97205.56
2022-12-15T07:57:48.466Z,97206.25
2022-12-15T08:00:53.194Z,97226.53
2022-12-15T08:03:56.220Z,97237.91
2022-12-15T08:06:59.634Z,97229.19
2022-12-15T08:10:02.495Z,97234.91
2022-12-15T08:13:05.335Z,97246.38
2022-12-15T08:16:09.909Z,97257.38
2022-12-15T08:19:15.263Z,97259.44
2022-12-15T08:22:18.138Z,97261.41
2022-12-15T08:25:21.138Z,97268.25
2022-12-15T08:28:23.960Z,97270.13
2022-12-15T08:31:30.793Z,97276.06
2022-12-15T08:34:33.694Z,97264.59
2022-12-15T08:37:36.492Z,97275.56
2022-12-15T08:40:39.244Z,97276.03
2022-12-15T08:43:48.013Z,97271.56
2022-12-15T08:46:52.674Z,97262.50
2022-12-15T08:49:55.712Z,97269.81
2022-12-15T08:53:28.944Z,97281.94
2022-12-15T08:56:22.917Z,97280.25
2022-12-15T08:59:25.944Z,97274.56
2022-12-15T09:02:30.180Z,97278.72
2022-12-15T09:05:35.614Z,97290.44
2022-12-15T09:08:38.539Z,97286.66
2022-12-15T09:11:41.875Z,97262.50
2022-12-15T09:14:44.712Z,97261.25
2022-12-15T09:17:49.011Z,97264.06
2022-12-15T09:20:51.821Z,97270.00
2022-12-15T09:24:00.536Z,97280.59
2022-12-15T09:27:04.911Z,97271.38
2022-12-15T09:30:09.420Z,97272.13
2022-12-15T09:33:13.998Z,97258.75
2022-12-15T09:36:17.294Z,97262.00
2022-12-15T09:39:20.252Z,97264.25
2022-12-15T09:42:25.994Z,97259.28
2022-12-15T09:45:37.294Z,97266.53
2022-12-15T09:48:44.498Z,97264.84
2022-12-15T09:51:54.724Z,97267.28
2022-12-15T09:54:58.806Z,97265.59
2022-12-15T09:58:10.999Z,97262.00
2022-12-15T10:01:24.388Z,97273.38
2022-12-15T10:04:39.587Z,97278.91
2022-12-15T10:07:46.463Z,97276.66
2022-12-15T10:10:57.314Z,97271.44
2022-12-15T10:14:10.535Z,97268.31
2022-12-15T10:17:23.863Z,97265.47
2022-12-15T10:20:30.697Z,97276.47
2022-12-15T10:23:37.829Z,97282.31
2022-12-15T10:26:43.568Z,97273.25
2022-12-15T10:29:50.725Z,97277.03
2022-12-15T10:33:02.486Z,97271.88
2022-12-15T10:36:11.180Z,97263.53
2022-12-15T10:39:16.209Z,97250.31
2022-12-15T10:42:23.102Z,97244.03
2022-12-15T10:45:35.811Z,97228.22
2022-12-15T10:48:38.759Z,97219.25
2022-12-15T10:51:50.652Z,97210.34
2022-12-15T10:54:55.545Z,97212.16
2022-12-15T10:58:01.484Z,97212.66
2022-12-15T11:01:09.312Z,97208.34
2022-12-15T11:04:27.050Z,97198.75
2022-12-15T11:07:37.093Z,97210.19
2022-12-15T11:11:09.047Z,97199.44
2022-12-15T11:14:18.709Z,97207.38
2022-12-15T11:17:23.993Z,97213.47
2022-12-15T11:20:33.754Z,97208.66
2022-12-15T11:23:50.890Z,97203.78
2022-12-15T11:26:59.738Z,97205.78
2022-12-15T11:30:11.661Z,97192.16
2022-12-15T11:33:15.536Z,97178.56
2022-12-15T11:36:30.670Z,97188.66
2022-12-15T11:39:46.066Z,97207.06
2022-12-15T11:43:02.116Z,97207.38
2022-12-15T11:46:21.534Z,97192.28
2022-12-15T11:49:55.740Z,97190.41
2022-12-15T11:53:26.002Z,97173.38
2022-12-15T11:56:34.728Z,97169.22
2022-12-15T11:59:52.735Z,97159.31
2022-12-15T12:03:16.309Z,97148.25
2022-12-15T12:06:26.191Z,97152.72
2022-12-15T12:09:36.167Z,97142.47
2022-12-15T12:12:47.316Z,97130.09
2022-12-15T12:16:01.758Z,97127.22
2022-12-15T12:19:07.516Z,97119.16
2022-12-15T12:22:22.674Z,97111.00
2022-12-15T12:25:27.639Z,97108.31
2022-12-15T12:28:43.108Z,97101.28
2022-12-15T12:32:02.001Z,97089.34
2022-12-15T12:35:32.126Z,97107.50
2022-12-15T12:38:40.369Z,97104.69
2022-12-15T12:41:49.185Z,97101.03
2022-12-15T12:44:53.554Z,97091.41
2022-12-15T12:48:01.281Z,97084.59
2022-12-15T12:51:25.941Z,97089.19
2022-12-15T12:54:58.228Z,97090.41
2022-12-15T12:58:01.978Z,97079.31
2022-12-15T13:01:21.184Z,97086.72
2022-12-15T13:04:40.670Z,97085.28
2022-12-15T13:07:45.725Z,97086.44
2022-12-15T13:10:54.116Z,97077.47
2022-12-15T13:13:57.231Z,97067.50
2022-12-15T13:17:26.141Z,97065.25
2022-12-15T13:20:32.272Z,97061.00
2022-12-15T13:23:38.178Z,97056.13
2022-12-15T13:26:45.270Z,97052.34
2022-12-15T13:29:57.581Z,97037.09
2022-12-15T13:33:19.670Z,97028.47
2022-12-15T13:36:57.689Z,97018.94
2022-12-15T13:40:00.900Z,97028.31
2022-12-15T13:43:32.045Z,97013.66
2022-12-15T13:46:35.749Z,97013.66
2022-12-15T13:49:52.013Z,97007.88
2022-12-15T13:53:18.753Z,97020.19
2022-12-15T13:56:37.742Z,97027.75
2022-12-15T13:59:43.887Z,97035.03
2022-12-15T14:02:47.083Z,97027.19
2022-12-15T14:05:55.695Z,97027.97
2022-12-15T14:08:58.596Z,97020.56
2022-12-15T14:12:03.661Z,97019.59
2022-12-15T14:15:08.100Z,97026.03
2022-12-15T14:18:24.451Z,97029.97
2022-12-15T14:21:30.374Z,97022.53
2022-12-15T14:27:58.569Z,97024.56
2022-12-15T14:31:05.587Z,97021.50
2022-12-15T14:34:13.581Z,97031.41
2022-12-15T14:37:21.696Z,97026.22
2022-12-15T14:40:28.969Z,97036.03
2022-12-15T14:43:36.382Z,97032.84
2022-12-15T14:46:39.760Z,97036.28
2022-12-15T14:49:46.261Z,97036.59
2022-12-15T14:52:56.565Z,97033.72
2022-12-15T14:56:00.901Z,97037.47
2022-12-15T14:59:05.873Z,97026.81
2022-12-15T15:02:14.868Z,97035.06
2022-12-15T15:03:09.751Z,97019.22
2022-12-15T15:05:27.850Z,97034.75
2022-12-15T15:08:34.873Z,97031.28
2022-12-15T15:11:41.589Z,97032.84
2022-12-15T15:14:46.905Z,97016.94
2022-12-15T15:17:53.178Z,97010.38
2022-12-15T15:20:59.962Z,97009.56
2022-12-15T15:24:05.898Z,97020.13
2022-12-15T15:27:32.779Z,97023.81
2022-12-15T15:30:43.577Z,97028.59
2022-12-15T15:33:46.668Z,97030.44
2022-12-15T15:36:49.752Z,97033.09
2022-12-15T15:39:55.974Z,97033.59
2022-12-15T15:42:58.796Z,97034.94
2022-12-15T15:46:03.834Z,97039.59
2022-12-15T15:49:09.109Z,97042.94
2022-12-15T15:52:14.577Z,97042.94
2022-12-15T15:55:27.944Z,97046.41
2022-12-15T15:58:31.140Z,97040.25
2022-12-15T16:01:34.677Z,97046.03
2022-12-15T16:04:40.609Z,97030.81
2022-12-15T16:07:46.500Z,97033.44
2022-12-15T16:10:51.381Z,97031.66
2022-12-15T16:13:54.334Z,97034.31
2022-12-15T16:16:58.190Z,97027.19
2022-12-15T16:20:00.979Z,97014.03
2022-12-15T16:23:06.993Z,97018.63
2022-12-15T16:26:16.073Z,97021.72
2022-12-15T16:29:20.605Z,97031.41
2022-12-15T16:32:23.288Z,97033.03
2022-12-15T16:35:27.101Z,97028.97
2022-12-15T16:38:32.638Z,97024.53
2022-12-15T16:41:37.194Z,97011.34
2022-12-15T16:44:39.966Z,97019.56
2022-12-15T16:47:42.777Z,97031.41
2022-12-15T16:50:48.287Z,97028.22
2022-12-15T16:53:51.048Z,97021.09
2022-12-15T16:56:57.441Z,97013.31
2022-12-15T17:00:01.660Z,97013.81
2022-12-15T17:03:05.786Z,97016.44
2022-12-15T17:06:09.086Z,97017.22
2022-12-15T17:09:23.323Z,96996.03
2022-12-15T17:12:27.740Z,96988.16
2022-12-15T17:15:30.515Z,96985.22
2022-12-15T17:18:33.725Z,96986.69
2022-12-15T17:21:43.930Z,96975.88
2022-12-15T17:24:46.829Z,96972.19
2022-12-15T17:27:53.843Z,96976.75
2022-12-15T17:30:56.721Z,96977.00
2022-12-15T17:33:59.693Z,96972.00
2022-12-15T17:37:04.792Z,96976.81
2022-12-15T17:40:16.769Z,96976.06
2022-12-15T17:43:22.981Z,96966.84
2022-12-15T17:46:26.153Z,96957.56
2022-12-15T17:49:35.099Z,96960.47
2022-12-15T17:52:39.609Z,96963.09
2022-12-15T17:55:42.365Z,96972.13
2022-12-15T17:58:46.698Z,96977.25
2022-12-15T18:01:50.680Z,96972.13
2022-12-15T18:04:55.261Z,96973.50
2022-12-15T18:08:01.001Z,96971.97
2022-12-15T18:11:03.881Z,96969.78
2022-12-15T18:14:13.773Z,96970.31
2022-12-15T18:17:17.183Z,96970.34
2022-12-15T18:20:21.311Z,96971.19
2022-12-15T18:23:26.823Z,96976.31
2022-12-15T18:26:31.460Z,96966.19
2022-12-15T18:29:35.992Z,96969.06
2022-12-15T18:32:42.006Z,96969.38
2022-12-15T18:35:46.767Z,96973.75
2022-12-15T18:38:49.840Z,96969.06
2022-12-15T18:41:55.046Z,96969.66
2022-12-15T18:45:00.282Z,96968.81
2022-12-15T18:48:03.070Z,96972.63
2022-12-15T18:51:16.371Z,96971.19
2022-12-15T18:54:21.133Z,96955.66
2022-12-15T18:57:29.183Z,96961.09
2022-12-15T19:00:34.944Z,96961.59
2022-12-15T19:03:40.499Z,96960.75
2022-12-15T19:06:44.299Z,96950.19
2022-12-15T19:09:47.491Z,96946.84
2022-12-15T19:12:55.281Z,96944.66
2022-12-15T19:16:04.848Z,96942.13
2022-12-15T19:19:25.190Z,96939.78
2022-12-15T19:22:29.615Z,96929.78
2022-12-15T19:25:33.524Z,96920.28
2022-12-15T19:28:36.760Z,96915.31
2022-12-15T19:31:40.881Z,96911.63
2022-12-15T19:34:44.175Z,96899.47
2022-12-15T19:37:48.820Z,96897.88
2022-12-15T19:40:55.797Z,96903.91
2022-12-15T19:43:58.505Z,96907.88
2022-12-15T19:47:02.637Z,96913.56
2022-12-15T19:50:10.642Z,96919.72
2022-12-15T19:53:17.659Z,96914.56
2022-12-15T19:56:22.892Z,96915.19
2022-12-15T19:59:28.172Z,96926.19
2022-12-15T20:02:32.976Z,96931.16
2022-12-15T20:05:36.768Z,96927.19
2022-12-15T20:08:43.102Z,96938.16
2022-12-15T20:11:46.782Z,96938.72
2022-12-15T20:14:49.776Z,96936.94
2022-12-15T20:17:57.074Z,96933.75
2022-12-15T20:21:01.429Z,96928.88
2022-12-15T20:24:10.028Z,96925.84
2022-12-15T20:27:15.345Z,96926.88
2022-12-15T20:30:20.616Z,96927.28
2022-12-15T20:33:25.951Z,96927.38
2022-12-15T20:36:31.712Z,96942.00
2022-12-15T20:39:35.427Z,96936.72
2022-12-15T20:42:42.948Z,96943.06
2022-12-15T20:45:47.668Z,96943.44
2022-12-15T20:48:54.467Z,96943.59
2022-12-15T20:52:00.539Z,96947.84
2022-12-15T20:55:04.247Z,96944.16
2022-12-15T20:58:08.003Z,96962.34
2022-12-15T21:01:19.614Z,96964.69
2022-12-15T21:04:28.925Z,96956.28
2022-12-15T21:07:32.048Z,96952.75
2022-12-15T21:10:35.018Z,96953.66
2022-12-15T21:13:37.946Z,96951.69
2022-12-15T21:16:40.958Z,96939.06
2022-12-15T21:19:45.581Z,96941.19
2022-12-15T21:22:48.570Z,96935.69
2022-12-15T21:25:52.628Z,96939.84
2022-12-15T21:28:59.328Z,96932.97
2022-12-15T21:32:02.175Z,96929.84
2022-12-15T21:35:07.587Z,96919.69
2022-12-15T21:38:27.624Z,96921.88
2022-12-15T21:41:30.600Z,96924.66
2022-12-15T21:44:33.501Z,96924.66
2022-12-15T21:47:51.916Z,96925.38
2022-12-15T21:50:56.440Z,96920.44
2022-12-15T21:53:59.383Z,96923.63
2022-12-15T21:57:03.042Z,96926.41
2022-12-15T22:00:11.560Z,96914.09
2022-12-15T22:03:14.765Z,96925.78
2022-12-15T22:06:21.165Z,96933.50
2022-12-15T22:09:24.031Z,96933.50
2022-12-15T22:12:28.184Z,96938.84
2022-12-15T22:15:31.183Z,96936.69
2022-12-15T22:18:35.005Z,96945.41
2022-12-15T22:21:41.583Z,96950.75
2022-12-15T22:24:44.744Z,96948.25
2022-12-15T22:27:48.525Z,96946.03
2022-12-15T22:30:52.399Z,96948.03
2022-12-15T22:33:57.397Z,96954.56
2022-12-15T22:37:01.663Z,96956.66
2022-12-15T22:40:05.252Z,96959.03
2022-12-15T22:43:19.221Z,96962.41
2022-12-15T22:46:24.754Z,96962.47
2022-12-15T22:49:32.657Z,96974.50
2022-12-15T22:52:41.471Z,96968.19
2022-12-15T22:55:45.814Z,96963.59
2022-12-15T22:58:51.043Z,96960.75
2022-12-15T23:01:55.734Z,96969.63
2022-12-15T23:04:59.067Z,96972.03
2022-12-15T23:08:03.308Z,96973.31
2022-12-15T23:11:26.417Z,96972.88
2022-12-15T23:14:43.265Z,96967.53
2022-12-15T23:17:46.211Z,96962.66
2022-12-15T23:20:49.126Z,96961.09
2022-12-15T23:23:53.435Z,96961.41
2022-12-15T23:26:56.479Z,96960.28
2022-12-15T23:29:59.398Z,96962.03
2022-12-15T23:33:02.295Z,96961.81
2022-12-15T23:36:06.448Z,96962.16
2022-12-15T23:39:11.359Z,96960.75
2022-12-15T23:42:14.437Z,96969.59
2022-12-15T23:45:17.922Z,96960.41
2022-12-15T23:48:20.858Z,96961.94
2022-12-15T23:51:24.996Z,96971.56
2022-12-15T23:54:29.393Z,96971.69
2022-12-15T23:57:32.188Z,96973.84
